Time;durP1;ratioP1;P1;durP2;ratioP2;P2;SDS_P1;SDS_P2;PMS_P1;PMS_P2;Temp;Humidity;BMP_temperature;BMP_pressure;BME280_temperature;BME280_humidity;BME280_pressure;Samples;Min_cycle;Max_cycle;Signal;HPM_P1;HPM_P2
2023/09/18 00:01:06;;;;;;;0.00;0.00;;;;;;;19.70;100.00;100379.97;6349949;28;20055;-74
2023/09/18 00:04:07;;;;;;;0.08;0.08;;;;;;;19.70;100.00;100385.25;6350481;28;20056;-74
2023/09/18 00:07:10;;;;;;;0.00;0.00;;;;;;;19.68;100.00;100373.97;6348476;28;20056;-74
2023/09/18 00:10:14;;;;;;;0.00;0.00;;;;;;;19.64;100.00;100365.53;6350442;28;20048;-72
2023/09/18 00:13:17;;;;;;;0.00;0.00;;;;;;;19.60;100.00;100368.56;6350174;28;20097;-71
2023/09/18 00:16:18;;;;;;;0.00;0.00;;;;;;;19.61;100.00;100372.91;6350227;28;20040;-71
2023/09/18 00:19:21;;;;;;;0.00;0.00;;;;;;;19.57;100.00;100371.53;6348675;28;20491;-71
2023/09/18 00:22:24;;;;;;;0.00;0.00;;;;;;;19.63;100.00;100370.94;6348432;28;20051;-74
2023/09/18 00:25:27;;;;;;;0.00;0.00;;;;;;;19.58;100.00;100363.44;6348664;28;20055;-74
2023/09/18 00:28:28;;;;;;;0.00;0.00;;;;;;;19.50;100.00;100360.69;6349052;28;20070;-74
2023/09/18 00:31:29;;;;;;;0.00;0.00;;;;;;;19.44;100.00;100361.25;6348906;28;20051;-74
2023/09/18 00:34:33;;;;;;;0.97;0.20;;;;;;;19.39;100.00;100359.03;6349013;28;20123;-74
2023/09/18 00:37:33;;;;;;;0.10;0.10;;;;;;;19.35;100.00;100362.09;6348514;28;20089;-71
2023/09/18 00:40:34;;;;;;;0.00;0.00;;;;;;;19.32;100.00;100361.41;6347694;28;20055;-72
2023/09/18 00:43:35;;;;;;;0.00;0.00;;;;;;;19.35;100.00;100365.59;6348319;28;20415;-71
2023/09/18 00:46:36;;;;;;;0.93;0.67;;;;;;;19.32;100.00;100365.88;6348536;28;20043;-74
2023/09/18 00:49:40;;;;;;;0.00;0.00;;;;;;;19.25;100.00;100360.34;6348074;28;20109;-74
2023/09/18 00:52:42;;;;;;;0.00;0.00;;;;;;;19.22;100.00;100355.31;6348829;28;20047;-74
2023/09/18 00:55:43;;;;;;;0.00;0.00;;;;;;;19.25;100.00;100360.34;6348047;28;20051;-74
2023/09/18 00:58:46;;;;;;;0.00;0.00;;;;;;;19.21;100.00;100363.38;6349462;28;20054;-74
2023/09/18 01:01:50;;;;;;;0.00;0.00;;;;;;;19.10;100.00;100357.25;6348382;28;20071;-71
2023/09/18 01:04:53;;;;;;;0.00;0.00;;;;;;;19.08;100.00;100348.63;6349063;28;20139;-72
2023/09/18 01:07:54;;;;;;;0.00;0.00;;;;;;;19.06;100.00;100347.13;6347368;28;20051;-72
2023/09/18 01:11:10;;;;;;;0.00;0.00;;;;;;;19.04;100.00;100341.13;6348275;28;20047;-71
2023/09/18 01:14:25;;;;;;;0.00;0.00;;;;;;;19.02;100.00;100341.28;6348630;28;20483;-71
2023/09/18 01:17:29;;;;;;;0.00;0.00;;;;;;;19.10;100.00;100343.22;6347945;28;20127;-74
2023/09/18 01:20:30;;;;;;;0.15;0.15;;;;;;;19.08;100.00;100339.88;6348819;28;20048;-74
2023/09/18 01:23:31;;;;;;;0.00;0.00;;;;;;;18.99;100.00;100336.28;6348812;28;20048;-74
2023/09/18 01:26:34;;;;;;;0.00;0.00;;;;;;;18.92;100.00;100330.72;6347852;28;20318;-74
2023/09/18 01:29:35;;;;;;;0.10;0.10;;;;;;;18.92;100.00;100328.09;6346971;28;20564;-74
2023/09/18 01:32:38;;;;;;;0.00;0.00;;;;;;;18.84;100.00;100335.88;6348685;28;20074;-74
2023/09/18 01:35:40;;;;;;;0.00;0.00;;;;;;;18.78;100.00;100331.13;6347438;28;20044;-74
2023/09/18 01:38:41;;;;;;;0.00;0.00;;;;;;;18.70;100.00;100331.81;6348511;28;20096;-75
2023/09/18 01:41:43;;;;;;;0.00;0.00;;;;;;;18.71;100.00;100336.13;6348587;28;20048;-74
2023/09/18 01:44:45;;;;;;;0.00;0.00;;;;;;;18.74;100.00;100345.59;6348644;28;20054;-71
2023/09/18 01:47:46;;;;;;;;;;;;;;;18.73;100.00;100350.03;6348768;28;20043;-74
2023/09/18 01:50:49;;;;;;;0.00;0.00;;;;;;;18.67;100.00;100342.66;6346930;28;19926;-74
2023/09/18 01:53:53;;;;;;;0.00;0.00;;;;;;;18.64;100.00;100350.03;6348447;28;20561;-74
2023/09/18 01:56:54;;;;;;;0.00;0.00;;;;;;;18.56;100.00;100339.34;6346810;28;20071;-74
2023/09/18 01:59:57;;;;;;;0.23;0.10;;;;;;;18.48;100.00;100342.66;6348124;28;20047;-71
2023/09/18 02:03:00;;;;;;;0.00;0.00;;;;;;;18.44;100.00;100344.72;6347822;28;20063;-71
2023/09/18 02:06:01;;;;;;;0.00;0.00;;;;;;;18.44;100.00;100349.19;6346275;28;20087;-72
2023/09/18 02:09:03;;;;;;;0.00;0.00;;;;;;;18.46;100.00;100340.13;6346533;28;20495;-71
2023/09/18 02:12:05;;;;;;;0.00;0.00;;;;;;;18.42;100.00;100354.59;6346243;28;20051;-71
2023/09/18 02:15:06;;;;;;;;;;;;;;;18.39;100.00;100357.53;6346693;28;20050;-71
2023/09/18 02:18:07;;;;;;;0.00;0.00;;;;;;;18.27;100.00;100355.97;6347304;28;19946;-71
2023/09/18 02:21:13;;;;;;;0.00;0.00;;;;;;;18.27;100.00;100354.16;6346087;28;20495;-71
2023/09/18 02:24:14;;;;;;;0.00;0.00;;;;;;;18.23;100.00;100360.69;6347039;28;20051;-71
2023/09/18 02:27:15;;;;;;;0.00;0.00;;;;;;;18.13;100.00;100352.72;6347337;28;20109;-71
2023/09/18 02:30:16;;;;;;;0.00;0.00;;;;;;;18.20;100.00;100362.75;6346993;28;20449;-71
2023/09/18 02:33:17;;;;;;;0.10;0.10;;;;;;;18.01;100.00;100366.19;6346163;28;20058;-71
2023/09/18 02:36:20;;;;;;;0.00;0.00;;;;;;;17.98;100.00;100363.81;6345872;28;20093;-71
2023/09/18 02:39:21;;;;;;;0.00;0.00;;;;;;;18.00;100.00;100362.72;6347263;28;20047;-72
2023/09/18 02:42:22;;;;;;;0.00;0.00;;;;;;;17.89;100.00;100368.06;6344897;28;20093;-71
2023/09/18 02:45:23;;;;;;;0.00;0.00;;;;;;;17.78;100.00;100354.97;6321584;28;20062;-71
2023/09/18 02:48:24;;;;;;;0.00;0.00;;;;;;;17.78;100.00;100361.06;6354253;27;20040;-71
2023/09/18 02:51:25;;;;;;;0.00;0.00;;;;;;;17.71;100.00;100363.41;6354094;27;20392;-72
2023/09/18 02:54:27;;;;;;;0.00;0.00;;;;;;;17.74;100.00;100349.09;6337501;28;20097;-72
2023/09/18 02:57:28;;;;;;;0.00;0.00;;;;;;;17.70;100.00;100359.06;6342860;27;20047;-72
2023/09/18 03:00:29;;;;;;;0.00;0.00;;;;;;;17.64;100.00;100356.13;6344237;28;20044;-72
2023/09/18 03:03:30;;;;;;;0.00;0.00;;;;;;;17.64;100.00;100356.97;6344959;28;20052;-71
2023/09/18 03:06:30;;;;;;;0.00;0.00;;;;;;;17.66;100.00;100351.56;6343308;28;20052;-72
2023/09/18 03:09:35;;;;;;;0.00;0.00;;;;;;;17.61;100.00;100356.41;6346044;28;20044;-71
2023/09/18 03:12:38;;;;;;;0.00;0.00;;;;;;;17.54;100.00;100353.44;6333603;28;20406;-71
2023/09/18 03:15:40;;;;;;;0.00;0.00;;;;;;;17.58;100.00;100362.75;6345264;28;20229;-72
2023/09/18 03:18:41;;;;;;;0.00;0.00;;;;;;;17.51;100.00;100362.47;6344550;28;20044;-74
2023/09/18 03:21:42;;;;;;;0.00;0.00;;;;;;;17.47;100.00;100363.69;6345474;28;20138;-74
2023/09/18 03:24:43;;;;;;;0.00;0.00;;;;;;;17.43;100.00;100356.19;6349695;28;20048;-74
2023/09/18 03:27:44;;;;;;;0.00;0.00;;;;;;;17.40;100.00;100362.56;6344843;28;20423;-71
2023/09/18 03:30:45;;;;;;;0.00;0.00;;;;;;;17.46;100.00;100358.53;6352871;28;20496;-72
2023/09/18 03:33:46;;;;;;;0.00;0.00;;;;;;;17.48;100.00;100359.25;6323478;28;20062;-71
2023/09/18 03:36:49;;;;;;;0.00;0.00;;;;;;;17.45;100.00;100362.16;6348723;27;20083;-74
2023/09/18 03:39:51;;;;;;;0.00;0.00;;;;;;;17.40;100.00;100365.19;6349941;27;20051;-74
2023/09/18 03:42:52;;;;;;;0.00;0.00;;;;;;;17.30;100.00;100361.66;6364982;27;20047;-75
2023/09/18 03:45:52;;;;;;;0.03;0.03;;;;;;;17.25;100.00;100371.75;6354473;27;20047;-74
2023/09/18 03:48:54;;;;;;;0.10;0.10;;;;;;;17.21;100.00;100365.88;6352882;27;20044;-74
2023/09/18 03:51:55;;;;;;;0.00;0.00;;;;;;;17.26;100.00;100370.78;6349986;28;20427;-74
2023/09/18 03:54:56;;;;;;;0.00;0.00;;;;;;;17.26;100.00;100361.06;6348889;27;20058;-74
2023/09/18 03:57:57;;;;;;;0.00;0.00;;;;;;;18.20;100.00;100354.84;6353235;27;20043;-74
2023/09/18 04:00:58;;;;;;;0.00;0.00;;;;;;;18.64;96.68;100358.81;6348274;27;20786;-74
2023/09/18 04:04:00;;;;;;;3.30;0.30;;;;;;;18.81;93.73;100357.28;6351968;27;20047;-74
2023/09/18 04:07:05;;;;;;;;;;;;;;;18.92;92.76;100367.75;6353277;27;20048;-72
2023/09/18 04:10:05;;;;;;;0.25;0.25;;;;;;;18.97;91.43;100358.56;6332489;28;19920;-71
2023/09/18 04:13:09;;;;;;;0.00;0.00;;;;;;;18.77;91.50;100365.63;6347922;28;20079;-71
2023/09/18 04:16:16;;;;;;;0.00;0.00;;;;;;;17.32;100.00;100363.19;6350324;28;20069;-71
2023/09/18 04:19:19;;;;;;;0.00;0.00;;;;;;;17.05;100.00;100362.88;6350230;28;20047;-71
2023/09/18 04:22:20;;;;;;;0.10;0.10;;;;;;;17.00;100.00;100363.25;6350046;28;20518;-72
2023/09/18 04:25:22;;;;;;;0.00;0.00;;;;;;;16.89;100.00;100363.31;6348574;28;20052;-71
2023/09/18 04:28:23;;;;;;;0.00;0.00;;;;;;;17.01;100.00;100364.94;6349574;28;20040;-72
2023/09/18 04:31:27;;;;;;;0.03;0.03;;;;;;;16.87;100.00;100365.25;6349658;28;20050;-72
2023/09/18 04:34:28;;;;;;;0.00;0.00;;;;;;;17.00;100.00;100360.59;6358740;27;20363;-71
2023/09/18 04:37:29;;;;;;;0.00;0.00;;;;;;;17.14;100.00;100359.47;6344068;28;20047;-72
2023/09/18 04:40:32;;;;;;;0.20;0.20;;;;;;;17.07;100.00;100363.56;6350184;28;20076;-72
2023/09/18 04:43:34;;;;;;;0.00;0.00;;;;;;;17.17;100.00;100364.47;6349438;28;20051;-71
2023/09/18 04:46:37;;;;;;;0.00;0.00;;;;;;;17.23;100.00;100371.03;6347548;28;20043;-71
2023/09/18 04:49:38;;;;;;;0.00;0.00;;;;;;;17.25;100.00;100369.94;6349078;27;20108;-72
2023/09/18 04:52:40;;;;;;;0.30;0.17;;;;;;;17.31;100.00;100371.22;6363184;27;20043;-71
2023/09/18 04:55:41;;;;;;;;;;;;;;;17.26;100.00;100370.78;6372485;27;20558;-72
2023/09/18 04:58:42;;;;;;;0.05;0.05;;;;;;;17.75;100.00;100371.91;6373465;27;19923;-71
2023/09/18 05:01:45;;;;;;;0.03;0.03;;;;;;;17.47;100.00;100376.06;6373621;27;20043;-72
2023/09/18 05:04:46;;;;;;;0.00;0.00;;;;;;;17.50;100.00;100374.00;6373315;27;20391;-71
2023/09/18 05:07:47;;;;;;;0.00;0.00;;;;;;;17.53;100.00;100365.81;6373149;27;20054;-71
2023/09/18 05:10:48;;;;;;;0.00;0.00;;;;;;;17.53;100.00;100367.63;6373214;27;20096;-71
2023/09/18 05:13:50;;;;;;;0.00;0.00;;;;;;;17.57;100.00;100368.19;6374581;27;20047;-71
2023/09/18 05:16:53;;;;;;;0.00;0.00;;;;;;;17.68;100.00;100366.28;6373137;27;20052;-71
2023/09/18 05:19:54;;;;;;;0.00;0.00;;;;;;;17.73;100.00;100356.19;6374408;27;20062;-71
2023/09/18 05:22:56;;;;;;;0.00;0.00;;;;;;;17.79;100.00;100367.16;6374189;27;20047;-71
2023/09/18 05:25:57;;;;;;;0.00;0.00;;;;;;;17.90;100.00;100364.47;6373090;27;20062;-71
2023/09/18 05:28:58;;;;;;;0.00;0.00;;;;;;;17.99;100.00;100362.84;6373937;27;20047;-71
2023/09/18 05:32:01;;;;;;;0.00;0.00;;;;;;;18.02;100.00;100358.13;6372792;27;20083;-71
2023/09/18 05:35:06;;;;;;;0.00;0.00;;;;;;;18.07;100.00;100357.72;6373685;27;20047;-72
2023/09/18 05:38:08;;;;;;;0.00;0.00;;;;;;;18.16;100.00;100359.56;6373908;27;20114;-71
2023/09/18 05:41:09;;;;;;;0.00;0.00;;;;;;;18.25;100.00;100350.81;6358351;27;20052;-71
2023/09/18 05:44:10;;;;;;;0.00;0.00;;;;;;;18.37;100.00;100354.19;6343518;28;20059;-71
2023/09/18 05:47:12;;;;;;;0.00;0.00;;;;;;;18.57;100.00;100362.13;6346529;27;20047;-72
2023/09/18 05:50:17;;;;;;;0.00;0.00;;;;;;;18.59;100.00;100358.38;6348006;28;20082;-72
2023/09/18 05:53:18;;;;;;;0.22;0.22;;;;;;;18.67;100.00;100355.88;6346794;28;20055;-72
2023/09/18 05:56:19;;;;;;;0.20;0.20;;;;;;;18.69;100.00;100353.91;6347399;28;20051;-71
2023/09/18 05:59:20;;;;;;;0.00;0.00;;;;;;;18.81;100.00;100352.00;6346068;28;20135;-72
2023/09/18 06:02:21;;;;;;;0.00;0.00;;;;;;;18.91;100.00;100358.13;6347544;28;20276;-72
2023/09/18 06:05:21;;;;;;;0.00;0.00;;;;;;;19.08;100.00;100358.38;6346260;28;20055;-72
2023/09/18 06:08:26;;;;;;;0.00;0.00;;;;;;;19.15;100.00;100356.00;6347452;28;20051;-72
2023/09/18 06:11:26;;;;;;;0.00;0.00;;;;;;;19.20;100.00;100359.09;6346818;28;20070;-72
2023/09/18 06:14:27;;;;;;;0.33;0.33;;;;;;;19.43;100.00;100356.94;6347320;28;20047;-72
2023/09/18 06:17:28;;;;;;;0.07;0.03;;;;;;;19.52;100.00;100348.97;6345878;28;20044;-71
2023/09/18 06:20:29;;;;;;;0.00;0.00;;;;;;;19.58;100.00;100352.88;6380254;27;20051;-71
2023/09/18 06:23:30;;;;;;;0.33;0.33;;;;;;;19.69;100.00;100362.44;6345974;28;20059;-71
2023/09/18 06:26:31;;;;;;;0.00;0.00;;;;;;;19.71;100.00;100358.69;6346235;28;20040;-71
2023/09/18 06:29:33;;;;;;;0.00;0.00;;;;;;;19.92;100.00;100354.97;6347294;28;20070;-71
2023/09/18 06:32:36;;;;;;;0.00;0.00;;;;;;;20.05;100.00;100360.75;6345746;28;20487;-71
2023/09/18 06:35:40;;;;;;;0.00;0.00;;;;;;;20.34;100.00;100354.44;6347229;28;20130;-71
2023/09/18 06:38:41;;;;;;;0.85;0.28;;;;;;;20.52;97.55;100357.13;6345800;28;20047;-71
2023/09/18 06:41:42;;;;;;;0.03;0.03;;;;;;;20.43;97.59;100347.44;6347013;28;20568;-71
2023/09/18 06:44:43;;;;;;;0.00;0.00;;;;;;;20.37;97.30;100356.81;6347464;28;20173;-71
2023/09/18 06:47:44;;;;;;;0.00;0.00;;;;;;;20.62;96.65;100349.13;6347032;28;20124;-71
2023/09/18 06:50:45;;;;;;;0.00;0.00;;;;;;;20.89;96.01;100357.00;6345657;28;20055;-71
2023/09/18 06:53:45;;;;;;;0.50;0.47;;;;;;;21.08;92.30;100358.63;6346900;28;20052;-71
2023/09/18 06:56:48;;;;;;;0.17;0.17;;;;;;;21.13;91.56;100359.00;6346778;28;20513;-72
2023/09/18 06:59:51;;;;;;;0.55;0.55;;;;;;;21.28;91.61;100353.13;6345428;28;20473;-72
2023/09/18 07:02:55;;;;;;;0.00;0.00;;;;;;;21.46;88.03;100351.28;6346586;28;20047;-71
2023/09/18 07:05:56;;;;;;;0.00;0.00;;;;;;;21.58;87.70;100356.31;6345089;28;20106;-71
2023/09/18 07:08:56;;;;;;;0.20;0.20;;;;;;;21.59;86.93;100350.03;6346253;28;20044;-71
2023/09/18 07:11:57;;;;;;;0.00;0.00;;;;;;;21.76;85.75;100340.31;6345263;28;20579;-73
2023/09/18 07:15:04;;;;;;;0.00;0.00;;;;;;;22.03;86.65;100350.75;6346599;28;20047;-72
2023/09/18 07:18:05;;;;;;;0.00;0.00;;;;;;;22.12;84.19;100343.63;6345255;28;20127;-72
2023/09/18 07:21:11;;;;;;;0.00;0.00;;;;;;;22.24;83.17;100339.69;6345383;28;20054;-72
2023/09/18 07:24:16;;;;;;;0.00;0.00;;;;;;;22.40;83.33;100346.84;6346246;28;20051;-71
2023/09/18 07:27:17;;;;;;;0.03;0.03;;;;;;;22.41;83.24;100353.03;6346214;28;20044;-71
2023/09/18 07:30:20;;;;;;;0.00;0.00;;;;;;;22.66;79.89;100351.22;6346240;28;20105;-71
2023/09/18 07:33:21;;;;;;;0.00;0.00;;;;;;;22.83;78.36;100365.38;6346018;28;20066;-74
2023/09/18 07:36:24;;;;;;;0.10;0.10;;;;;;;23.07;77.38;100359.25;6345123;28;20483;-72
2023/09/18 07:39:25;;;;;;;0.00;0.00;;;;;;;23.20;75.76;100361.38;6346085;28;20670;-73
2023/09/18 07:42:27;;;;;;;0.00;0.00;;;;;;;23.29;75.91;100357.72;6346308;28;20047;-72
2023/09/18 07:45:30;;;;;;;;;;;;;;;23.41;75.20;100360.84;6346457;28;20518;-72
2023/09/18 07:48:31;;;;;;;0.55;0.30;;;;;;;23.59;74.41;100356.16;6344868;28;20665;-72
2023/09/18 07:51:31;;;;;;;0.10;0.10;;;;;;;23.42;73.16;100358.03;6339710;28;20054;-72
2023/09/18 07:54:32;;;;;;;0.80;0.73;;;;;;;23.50;71.88;100362.50;6339214;28;20079;-72
2023/09/18 07:57:34;;;;;;;0.00;0.00;;;;;;;23.63;72.15;100356.63;6343281;28;20043;-72
2023/09/18 08:00:35;;;;;;;0.00;0.00;;;;;;;23.63;72.55;100356.63;6343582;28;20272;-71
2023/09/18 08:03:36;;;;;;;0.00;0.00;;;;;;;23.65;69.80;100350.13;6343309;28;20126;-73
2023/09/18 08:06:38;;;;;;;0.00;0.00;;;;;;;23.82;72.18;100347.44;6341999;28;20044;-72
2023/09/18 08:09:38;;;;;;;0.00;0.00;;;;;;;23.98;72.31;100335.88;6343369;28;20075;-72
2023/09/18 08:12:39;;;;;;;0.00;0.00;;;;;;;24.10;72.37;100334.50;6343542;28;20066;-72
2023/09/18 08:15:40;;;;;;;0.17;0.17;;;;;;;24.27;71.46;100332.56;6342185;28;20516;-74
2023/09/18 08:18:41;;;;;;;0.00;0.00;;;;;;;24.46;70.36;100345.44;6341866;28;20083;-72
2023/09/18 08:21:42;;;;;;;0.17;0.17;;;;;;;24.63;67.11;100342.69;6376713;27;20051;-71
2023/09/18 08:24:45;;;;;;;0.00;0.00;;;;;;;24.66;66.67;100339.66;6344393;28;20055;-72
2023/09/18 08:27:47;;;;;;;0.00;0.00;;;;;;;24.74;65.01;100340.41;6346715;28;20130;-72
2023/09/18 08:30:47;;;;;;;;;;;;;;;24.95;65.78;100336.25;6348074;28;20054;-72
2023/09/18 08:33:48;;;;;;;0.00;0.00;;;;;;;24.96;65.41;100337.91;6347566;28;19919;-72
2023/09/18 08:36:52;;;;;;;0.00;0.00;;;;;;;25.17;64.85;100336.38;6347434;28;20071;-74
2023/09/18 08:39:52;;;;;;;0.00;0.00;;;;;;;25.30;64.01;100334.75;6347271;28;20050;-73
2023/09/18 08:42:56;;;;;;;0.75;0.15;;;;;;;25.34;61.40;100332.56;6346460;28;20460;-73
2023/09/18 08:46:01;;;;;;;0.00;0.00;;;;;;;25.56;60.82;100330.81;6346286;28;20055;-73
2023/09/18 08:49:02;;;;;;;0.00;0.00;;;;;;;25.78;61.14;100333.56;6347457;28;20048;-74
2023/09/18 08:52:06;;;;;;;0.00;0.00;;;;;;;25.82;60.59;100334.84;6346573;28;20505;-74
2023/09/18 08:55:08;;;;;;;0.08;0.08;;;;;;;25.78;60.31;100330.88;6349929;27;20055;-73
2023/09/18 08:58:12;;;;;;;0.00;0.00;;;;;;;25.91;59.46;100331.09;6349443;28;20048;-74
2023/09/18 09:01:13;;;;;;;0.00;0.00;;;;;;;25.98;59.71;100315.94;6349591;28;20044;-74
2023/09/18 09:04:14;;;;;;;;;;;;;;;26.20;59.18;100314.16;6348610;28;20052;-74
2023/09/18 09:07:15;;;;;;;0.00;0.00;;;;;;;26.30;58.56;100313.84;6347896;28;19920;-74
2023/09/18 09:10:17;;;;;;;0.00;0.00;;;;;;;26.38;56.98;100311.06;6349245;28;20138;-72
2023/09/18 09:13:18;;;;;;;0.00;0.00;;;;;;;26.52;55.04;100312.84;6348037;28;20051;-71
2023/09/18 09:16:22;;;;;;;0.00;0.00;;;;;;;26.51;55.55;100308.47;6347830;28;20100;-72
2023/09/18 09:19:38;;;;;;;0.05;0.05;;;;;;;26.53;57.44;100311.78;6347637;28;20056;-72
2023/09/18 09:22:40;;;;;;;0.00;0.00;;;;;;;26.74;55.23;100305.63;6348826;28;20051;-71
2023/09/18 09:25:41;;;;;;;0.00;0.00;;;;;;;26.81;56.58;100300.34;6347419;28;20047;-73
2023/09/18 09:28:44;;;;;;;0.20;0.20;;;;;;;27.14;55.61;100307.78;6347630;28;20052;-72
2023/09/18 09:31:48;;;;;;;0.93;0.57;;;;;;;27.13;55.50;100306.94;6346939;28;20047;-72
2023/09/18 09:34:49;;;;;;;0.00;0.00;;;;;;;27.07;54.83;100299.69;6348676;28;20048;-72
2023/09/18 09:37:51;;;;;;;0.00;0.00;;;;;;;26.78;55.38;100290.00;6347409;28;20047;-74
2023/09/18 09:40:52;;;;;;;0.00;0.00;;;;;;;27.03;55.03;100298.44;6347096;28;20059;-73
2023/09/18 09:43:55;;;;;;;;;;;;;;;27.52;54.79;100285.97;6348698;28;20051;-74
2023/09/18 09:46:59;;;;;;;0.00;0.00;;;;;;;27.68;55.15;100282.97;6347831;28;19924;-73
2023/09/18 09:50:09;;;;;;;0.00;0.00;;;;;;;27.65;53.80;100283.34;6346787;28;20078;-71
2023/09/18 09:53:10;;;;;;;0.00;0.00;;;;;;;27.66;53.40;100276.97;6346681;28;20141;-73
2023/09/18 09:56:11;;;;;;;0.00;0.00;;;;;;;28.03;52.15;100274.84;6347850;28;20083;-73
2023/09/18 09:59:14;;;;;;;0.00;0.00;;;;;;;28.01;53.28;100273.41;6348067;28;20039;-71
2023/09/18 10:02:19;;;;;;;0.00;0.00;;;;;;;27.70;53.92;100264.00;6347714;28;20069;-73
2023/09/18 10:05:20;;;;;;;0.00;0.00;;;;;;;27.43;55.41;100273.78;6347351;28;20559;-72
2023/09/18 10:08:27;;;;;;;0.20;0.20;;;;;;;27.27;56.18;100264.22;6347525;28;20044;-72
2023/09/18 10:11:32;;;;;;;0.00;0.00;;;;;;;27.38;55.23;100262.81;6346299;28;20043;-73
2023/09/18 10:14:35;;;;;;;0.00;0.00;;;;;;;27.92;54.76;100252.16;6346261;28;20111;-72
2023/09/18 10:17:44;;;;;;;0.00;0.00;;;;;;;28.40;52.65;100255.72;6347329;28;20104;-72
2023/09/18 10:20:48;;;;;;;0.47;0.20;;;;;;;27.89;52.44;100249.84;6347464;28;20047;-72
2023/09/18 10:24:14;;;;;;;0.00;0.00;;;;;;;28.05;52.04;100243.28;6345918;28;20055;-73
2023/09/18 10:27:17;;;;;;;0.45;0.25;;;;;;;28.58;54.96;100245.22;6346975;28;20047;-71
2023/09/18 10:30:19;;;;;;;2.50;0.93;;;;;;;28.80;52.73;100242.31;6347314;28;20113;-72
2023/09/18 10:33:20;;;;;;;;;;;;;;;28.79;48.61;100238.00;6346479;28;20083;-73
2023/09/18 10:36:22;;;;;;;0.00;0.00;;;;;;;28.96;49.89;100225.75;6345824;28;19925;-73
2023/09/18 10:39:28;;;;;;;0.00;0.00;;;;;;;28.37;52.51;100221.25;6347196;28;20100;-73
2023/09/18 10:42:30;;;;;;;0.03;0.00;;;;;;;29.01;51.78;100220.56;6345212;28;20585;-74
2023/09/18 10:45:32;;;;;;;0.00;0.00;;;;;;;29.51;51.36;100209.28;6347028;28;20056;-74
2023/09/18 10:48:33;;;;;;;;;;;;;;;29.74;47.82;100211.47;6347161;28;20043;-73
2023/09/18 10:51:33;;;;;;;0.00;0.00;;;;;;;29.63;48.58;100215.63;6345856;28;20371;-74
2023/09/18 10:54:37;;;;;;;0.00;0.00;;;;;;;29.45;47.28;100210.13;6346781;28;20051;-74
2023/09/18 10:57:53;;;;;;;0.10;0.10;;;;;;;29.00;50.03;100210.06;6346802;28;20040;-74
2023/09/18 11:00:54;;;;;;;0.10;0.10;;;;;;;29.14;49.68;100206.31;6345424;28;20146;-73
2023/09/18 11:04:01;;;;;;;;;;;;;;;29.25;50.07;100205.66;6346035;28;20047;-72
2023/09/18 11:07:03;;;;;;;0.00;0.00;;;;;;;27.91;48.37;100202.22;6346031;28;19943;-72
2023/09/18 11:10:29;;;;;;;0.00;0.00;;;;;;;28.86;48.68;100190.47;6345486;28;20082;-72
2023/09/18 11:13:42;;;;;;;0.00;0.00;;;;;;;29.23;47.86;100188.09;6346418;28;20051;-72
2023/09/18 11:16:43;;;;;;;0.10;0.10;;;;;;;29.57;48.09;100183.38;6345184;28;20422;-72
2023/09/18 11:19:44;;;;;;;0.00;0.00;;;;;;;29.17;48.78;100186.25;6346271;28;20384;-73
2023/09/18 11:23:16;;;;;;;0.00;0.00;;;;;;;28.98;50.79;100166.47;6346282;28;20384;-73
2023/09/18 11:26:20;;;;;;;0.00;0.00;;;;;;;28.30;49.26;100178.31;6344878;28;20100;-71
2023/09/18 11:29:23;;;;;;;0.38;0.38;;;;;;;28.80;47.93;100170.63;6345223;28;20040;-73
2023/09/18 11:32:42;;;;;;;0.00;0.00;;;;;;;29.40;48.25;100166.94;6346191;28;20048;-72
2023/09/18 11:35:52;;;;;;;0.10;0.10;;;;;;;28.64;46.71;100166.56;6344858;28;20558;-72
2023/09/18 11:39:02;;;;;;;0.00;0.00;;;;;;;28.05;48.25;100167.38;6344879;28;20054;-71
2023/09/18 11:42:22;;;;;;;0.00;0.00;;;;;;;28.49;48.46;100164.09;6346006;28;20586;-72
2023/09/18 11:45:23;;;;;;;0.40;0.32;;;;;;;28.68;46.54;100154.38;6345098;28;20051;-74
2023/09/18 11:48:24;;;;;;;0.00;0.00;;;;;;;28.67;48.76;100147.34;6346073;28;20047;-73
2023/09/18 11:51:27;;;;;;;0.00;0.00;;;;;;;29.06;47.67;100137.50;6344902;28;20492;-74
2023/09/18 11:54:29;;;;;;;0.00;0.00;;;;;;;29.49;46.77;100146.84;6346186;28;20089;-73
2023/09/18 11:57:35;;;;;;;0.00;0.00;;;;;;;29.49;47.25;100144.16;6350514;28;20058;-73
2023/09/18 12:00:45;;;;;;;0.00;0.00;;;;;;;28.69;48.25;100136.41;6349604;28;20490;-74
2023/09/18 12:03:53;;;;;;;0.00;0.00;;;;;;;28.60;49.21;100134.97;6349455;28;20048;-74
2023/09/18 12:06:53;;;;;;;0.45;0.43;;;;;;;28.52;47.07;100127.97;6350397;28;20052;-74
2023/09/18 12:09:54;;;;;;;0.20;0.20;;;;;;;28.73;47.70;100132.25;6349507;28;20483;-73
2023/09/18 12:12:55;;;;;;;0.00;0.00;;;;;;;29.08;47.25;100119.31;6348446;28;20054;-73
2023/09/18 12:16:04;;;;;;;0.00;0.00;;;;;;;29.24;45.61;100120.72;6331482;28;20052;-73
2023/09/18 12:19:06;;;;;;;0.00;0.00;;;;;;;29.59;43.95;100119.47;6320957;28;20097;-74
2023/09/18 12:22:07;;;;;;;0.00;0.00;;;;;;;29.86;45.50;100117.47;6338799;28;20131;-74
2023/09/18 12:25:13;;;;;;;0.00;0.00;;;;;;;29.66;44.58;100106.81;6338460;28;20096;-74
2023/09/18 12:28:15;;;;;;;0.10;0.05;;;;;;;29.07;44.70;100109.59;6338394;28;20405;-74
2023/09/18 12:31:16;;;;;;;0.20;0.10;;;;;;;29.51;47.10;100109.81;6324442;28;20098;-74
2023/09/18 12:34:22;;;;;;;0.08;0.08;;;;;;;29.07;49.18;100106.91;6324008;28;20071;-74
2023/09/18 12:37:23;;;;;;;0.40;0.40;;;;;;;28.89;45.42;100107.63;6338513;28;20048;-72
2023/09/18 12:40:26;;;;;;;0.00;0.00;;;;;;;28.90;45.47;100105.75;6322730;28;20052;-73
2023/09/18 12:43:29;;;;;;;0.00;0.00;;;;;;;29.24;44.42;100107.28;6320528;28;20427;-72
2023/09/18 12:46:31;;;;;;;0.00;0.00;;;;;;;29.39;45.60;100095.44;6321779;28;20134;-72
2023/09/18 12:49:34;;;;;;;0.00;0.00;;;;;;;29.29;43.78;100091.34;6320605;28;20139;-73
2023/09/18 12:52:35;;;;;;;0.15;0.15;;;;;;;29.60;44.70;100091.56;6337921;28;20070;-72
2023/09/18 12:55:36;;;;;;;;;;;;;;;29.45;41.91;100097.25;6322026;28;20052;-72
2023/09/18 12:58:37;;;;;;;0.00;0.00;;;;;;;29.09;46.27;100085.22;6337181;28;20236;-72
2023/09/18 13:01:38;;;;;;;0.00;0.00;;;;;;;28.70;46.29;100087.03;6321639;28;20048;-72
2023/09/18 13:04:39;;;;;;;0.13;0.13;;;;;;;28.69;48.68;100094.25;6337404;28;20044;-72
2023/09/18 13:07:45;;;;;;;0.30;0.10;;;;;;;29.59;44.63;100085.38;6320791;28;20067;-74
2023/09/18 13:10:49;;;;;;;0.00;0.00;;;;;;;30.26;41.72;100082.13;6321937;28;20106;-73
2023/09/18 13:13:57;;;;;;;0.05;0.05;;;;;;;28.96;45.41;100078.06;6337588;28;20052;-73
2023/09/18 13:17:04;;;;;;;0.00;0.00;;;;;;;28.82;46.74;100066.53;6339541;28;20048;-74
2023/09/18 13:20:16;;;;;;;0.43;0.32;;;;;;;28.78;45.77;100068.00;6346884;28;20142;-74
2023/09/18 13:23:19;;;;;;;0.00;0.00;;;;;;;28.54;45.72;100072.22;6346220;28;20051;-73
2023/09/18 13:26:20;;;;;;;0.00;0.00;;;;;;;28.34;44.96;100066.88;6344159;28;20047;-73
2023/09/18 13:29:21;;;;;;;0.00;0.00;;;;;;;28.26;45.23;100062.56;6344519;28;20039;-72
2023/09/18 13:32:22;;;;;;;0.00;0.00;;;;;;;28.18;47.10;100059.28;6346273;28;20054;-74
2023/09/18 13:35:23;;;;;;;0.00;0.00;;;;;;;28.27;45.66;100053.47;6344787;28;20051;-74
2023/09/18 13:38:24;;;;;;;0.00;0.00;;;;;;;28.51;46.68;100049.31;6346363;28;20047;-73
2023/09/18 13:41:27;;;;;;;0.10;0.10;;;;;;;28.59;43.47;100050.94;6345302;27;20195;-72
2023/09/18 13:44:28;;;;;;;0.15;0.10;;;;;;;28.86;44.47;100045.47;6346201;28;20052;-72
2023/09/18 13:47:29;;;;;;;0.00;0.00;;;;;;;28.87;43.75;100037.19;6345567;28;20427;-72
2023/09/18 13:50:31;;;;;;;;;;;;;;;28.86;45.53;100035.53;6345089;28;20047;-72
2023/09/18 13:53:34;;;;;;;;;;;;;;;28.58;44.93;100037.72;6345667;28;20006;-73
2023/09/18 13:56:35;;;;;;;0.00;0.00;;;;;;;28.50;45.48;100034.25;6346377;28;20353;-74
2023/09/18 13:59:37;;;;;;;0.90;0.52;;;;;;;28.23;45.94;100028.13;6348290;28;20051;-74
2023/09/18 14:02:39;;;;;;;0.00;0.00;;;;;;;28.21;47.48;100021.28;6346679;28;20173;-73
2023/09/18 14:05:39;;;;;;;0.15;0.13;;;;;;;28.02;47.03;100013.06;6347677;28;20056;-73
2023/09/18 14:08:40;;;;;;;0.10;0.00;;;;;;;27.95;47.10;100012.25;6346538;28;20532;-74